Sea Drift — WDC2818 — position and weather

sailwx.info

Track history (hours):
 
Tides and Currents Weather Stations Pressure Air Temp Water Temp Dewpoint Dewpoint Depression Visibility Wind Speed Wind Dir Waves Ship Positions

Sea Drift

Owner: Marquette Transportation Company Gulf-Inland, LLC, Jefferson, LA. More information available from US FCC via Universal Licensing System and Coast Guard Vessel Documentation Center.

Last reported at 2014-Oct-30 11:16 UTC. Time now 2014-Oct-30 12:16 UTC.
Position N 29°44' W 095°14'.

Length 23 m; draft 3 m.

Type: Towing. MMSI: 366998080.

Date/timePositionNaut miles runAvg speedWind from/ knotsBaromVisibWave heightAir tempDewpointWater temp
2014-Oct-30 11:16N 29°44' W 095°14'4 5.8
2014-Oct-30 10:32N 29°44' W 095°09'3 2.7
2014-Oct-30 09:33N 29°45' W 095°06'3 3.1
2014-Oct-30 08:33N 29°48' W 095°04'1 0.3
2014-Oct-30 06:33N 29°47' W 095°04'3 0.9
2014-Oct-30 03:31N 29°45' W 095°06'6 5.6
2014-Oct-30 02:24N 29°43' W 095°13'1 0.4
2014-Oct-30 00:06N 29°43' W 095°14'5 3.4
2014-Oct-29 22:34N 29°44' W 095°08'3 2.9
2014-Oct-29 21:33N 29°46' W 095°05'0 0.2
2014-Oct-29 19:31N 29°46' W 095°06'0 0.2
2014-Oct-29 18:31N 29°46' W 095°06'2 1.6
2014-Oct-29 17:33N 29°47' W 095°04'1 0.8
2014-Oct-29 16:22N 29°46' W 095°05'2 1.8
2014-Oct-29 15:29N 29°46' W 095°07'0 0.3
2014-Oct-29 14:33N 29°46' W 095°06'2 2.2
2014-Oct-29 13:33N 29°47' W 095°04'3 3.3
2014-Oct-29 12:33N 29°44' W 095°03'6 5.9
2014-Oct-29 11:33N 29°40' W 094°58'7 7.1
2014-Oct-29 10:33N 29°33' W 094°55'7 7.0
2014-Oct-29 09:33N 29°27' W 094°51'6 6.0
2014-Oct-29 08:30N 29°21' W 094°49'18 5.8
2014-Oct-29 05:25N 29°11' W 095°06'18 0.4
2014-Oct-27 02:21N 29°22' W 094°50'8 6.2
2014-Oct-27 01:04N 29°30' W 094°52'4 8.5
2014-Oct-27 00:34N 29°33' W 094°55'9 8.9
2014-Oct-26 23:34N 29°41' W 094°59'8 7.4
2014-Oct-26 22:32N 29°46' W 095°06'0 0.1
2014-Oct-26 20:33N 29°46' W 095°06'0 0.2
2014-Oct-26 19:22N 29°46' W 095°07'2 2.3
2014-Oct-26 18:33N 29°47' W 095°05'0 0.5
2014-Oct-26 17:33N 29°47' W 095°04'0 0.0
2014-Oct-26 16:33N 29°47' W 095°04'0 0.4
2014-Oct-26 15:33N 29°47' W 095°04'1 0.6
2014-Oct-26 14:32N 29°47' W 095°05'3 2.9
2014-Oct-26 13:33N 29°44' W 095°03'6 5.7
2014-Oct-26 12:34N 29°40' W 094°59'19 3.1
2014-Oct-26 06:25N 29°22' W 094°51'13 4.4
2014-Oct-26 03:21N 29°13' W 095°02'14 1.1
2014-Oct-25 14:30N 29°21' W 094°49'4 4.3
2014-Oct-25 13:34N 29°24' W 094°45'2 0.7
2014-Oct-25 11:26N 29°25' W 094°44'5 5.4
2014-Oct-25 10:33N 29°22' W 094°48'9 7.2
2014-Oct-25 09:19N 29°30' W 094°52'5 7.1
2014-Oct-25 08:33N 29°34' W 094°56'7 7.2
2014-Oct-25 07:33N 29°41' W 094°59'7 6.8
2014-Oct-25 06:33N 29°46' W 095°05'1 0.6
2014-Oct-25 05:33N 29°46' W 095°05'1 1.1
2014-Oct-25 04:33N 29°45' W 095°05'0 0.3
2014-Oct-25 03:22N 29°46' W 095°06'0 0.0
2014-Oct-25 01:33N 29°46' W 095°06'1 0.8
2014-Oct-25 00:33N 29°46' W 095°06'1 1.1
2014-Oct-24 23:29N 29°45' W 095°06'2 1.3
2014-Oct-24 22:09N 29°46' W 095°05'1 0.8
2014-Oct-24 21:30N 29°46' W 095°05'0 0.3
2014-Oct-24 20:29N 29°46' W 095°06'1 1.5
2014-Oct-24 19:32N 29°45' W 095°04'5 5.4
2014-Oct-24 18:33N 29°42' W 094°60'6 6.4
2014-Oct-24 17:34N 29°36' W 094°57'7 6.5
2014-Oct-24 16:33N 29°30' W 094°52'6 6.1
2014-Oct-24 15:32N 29°25' W 094°49'3 2.7
2014-Oct-24 14:33N 29°22' W 094°51'1 0.4
2014-Oct-24 11:10N 29°22' W 094°49'4 5.1
2014-Oct-24 10:26N 29°24' W 094°46'3 1.5
2014-Oct-24 08:29N 29°26' W 094°43'4 1.8
2014-Oct-24 06:20N 29°23' W 094°46'2 0.1
2014-Oct-23 06:12N 29°22' W 094°48'9 3.0
2014-Oct-23 03:08N 29°30' W 094°52'5 8.8
2014-Oct-23 02:33N 29°34' W 094°56'7 7.5
2014-Oct-23 01:33N 29°41' W 094°59'7 6.4
2014-Oct-23 00:26N 29°45' W 095°06'0 0.3
2014-Oct-22 23:29N 29°45' W 095°06'0 0.1
2014-Oct-22 21:31N 29°45' W 095°06'2 2.2
2014-Oct-22 20:33N 29°46' W 095°05'1 0.9
2014-Oct-22 19:29N 29°47' W 095°04'0 0.2
2014-Oct-22 18:33N 29°47' W 095°04'2 2.0
2014-Oct-22 17:33N 29°46' W 095°06'2 2.3
2014-Oct-22 16:33N 29°44' W 095°08'0 0.0
2014-Oct-22 15:08N 29°44' W 095°08'1 1.6
2014-Oct-22 14:33N 29°44' W 095°07'4 3.4
2014-Oct-22 13:31N 29°47' W 095°04'1 1.2
2014-Oct-22 12:31N 29°46' W 095°05'1 0.4
2014-Oct-22 10:11N 29°46' W 095°06'2 3.1
2014-Oct-22 09:33N 29°47' W 095°04'1 1.0
2014-Oct-22 08:33N 29°46' W 095°05'6 6.4
2014-Oct-22 07:33N 29°42' W 094°60'8 7.9
2014-Oct-22 06:33N 29°35' W 094°56'8 8.1
2014-Oct-22 05:32N 29°27' W 094°51'4 0.2
2014-Oct-21 05:26N 29°24' W 094°49'8 8.6
2014-Oct-21 04:32N 29°31' W 094°53'9 8.7
2014-Oct-21 03:33N 29°38' W 094°58'8 8.2
2014-Oct-21 02:33N 29°45' W 095°04'3 2.9
2014-Oct-21 01:33N 29°47' W 095°04'0 0.3
2014-Oct-21 00:33N 29°47' W 095°04'0 0.1
2014-Oct-20 23:33N 29°47' W 095°04'0 0.0
2014-Oct-20 21:29N 29°47' W 095°04'0 0.3
2014-Oct-20 20:33N 29°47' W 095°04'0 0.0
2014-Oct-20 19:33N 29°47' W 095°04'0 0.0
2014-Oct-20 18:33N 29°47' W 095°04'0 0.0
2014-Oct-20 17:33N 29°47' W 095°04'0 0.0
2014-Oct-20 16:33N 29°47' W 095°04'0 0.0
2014-Oct-20 15:17N 29°47' W 095°04'0 0.5
2014-Oct-20 14:31N 29°47' W 095°04'0 0.3
2014-Oct-20 13:32N 29°47' W 095°04'4 3.7
2014-Oct-20 12:33N 29°44' W 095°03'6 6.2
2014-Oct-20 11:33N 29°39' W 094°58'  
Track history (hours):
 
Tides and Currents Weather Stations Pressure Air Temp Water Temp Dewpoint Dewpoint Depression Visibility Wind Speed Wind Dir Waves Ship Positions

Sea Drift

Owner: Marquette Transportation Company Gulf-Inland, LLC, Jefferson, LA. More information available from US FCC via Universal Licensing System and Coast Guard Vessel Documentation Center.

Last reported at 2014-Oct-30 11:16 UTC. Time now 2014-Oct-30 12:16 UTC.
Position N 29°44' W 095°14'.

Length 23 m; draft 3 m.

Type: Towing. MMSI: 366998080.

Date/timePositionNaut miles runAvg speedWind from/ knotsBaromVisibWave heightAir tempDewpointWater temp
2014-Oct-30 11:16N 29°44' W 095°14'4 5.8
2014-Oct-30 10:32N 29°44' W 095°09'3 2.7
2014-Oct-30 09:33N 29°45' W 095°06'3 3.1
2014-Oct-30 08:33N 29°48' W 095°04'1 0.3
2014-Oct-30 06:33N 29°47' W 095°04'3 0.9
2014-Oct-30 03:31N 29°45' W 095°06'6 5.6
2014-Oct-30 02:24N 29°43' W 095°13'1 0.4
2014-Oct-30 00:06N 29°43' W 095°14'5 3.4
2014-Oct-29 22:34N 29°44' W 095°08'3 2.9
2014-Oct-29 21:33N 29°46' W 095°05'0 0.2
2014-Oct-29 19:31N 29°46' W 095°06'0 0.2
2014-Oct-29 18:31N 29°46' W 095°06'2 1.6
2014-Oct-29 17:33N 29°47' W 095°04'1 0.8
2014-Oct-29 16:22N 29°46' W 095°05'2 1.8
2014-Oct-29 15:29N 29°46' W 095°07'0 0.3
2014-Oct-29 14:33N 29°46' W 095°06'2 2.2
2014-Oct-29 13:33N 29°47' W 095°04'3 3.3
2014-Oct-29 12:33N 29°44' W 095°03'6 5.9
2014-Oct-29 11:33N 29°40' W 094°58'7 7.1
2014-Oct-29 10:33N 29°33' W 094°55'7 7.0
2014-Oct-29 09:33N 29°27' W 094°51'6 6.0
2014-Oct-29 08:30N 29°21' W 094°49'18 5.8
2014-Oct-29 05:25N 29°11' W 095°06'18 0.4
2014-Oct-27 02:21N 29°22' W 094°50'8 6.2
2014-Oct-27 01:04N 29°30' W 094°52'4 8.5
2014-Oct-27 00:34N 29°33' W 094°55'9 8.9
2014-Oct-26 23:34N 29°41' W 094°59'8 7.4
2014-Oct-26 22:32N 29°46' W 095°06'0 0.1
2014-Oct-26 20:33N 29°46' W 095°06'0 0.2
2014-Oct-26 19:22N 29°46' W 095°07'2 2.3
2014-Oct-26 18:33N 29°47' W 095°05'0 0.5
2014-Oct-26 17:33N 29°47' W 095°04'0 0.0
2014-Oct-26 16:33N 29°47' W 095°04'0 0.4
2014-Oct-26 15:33N 29°47' W 095°04'1 0.6
2014-Oct-26 14:32N 29°47' W 095°05'3 2.9
2014-Oct-26 13:33N 29°44' W 095°03'6 5.7
2014-Oct-26 12:34N 29°40' W 094°59'19 3.1
2014-Oct-26 06:25N 29°22' W 094°51'13 4.4
2014-Oct-26 03:21N 29°13' W 095°02'14 1.1
2014-Oct-25 14:30N 29°21' W 094°49'4 4.3
2014-Oct-25 13:34N 29°24' W 094°45'2 0.7
2014-Oct-25 11:26N 29°25' W 094°44'5 5.4
2014-Oct-25 10:33N 29°22' W 094°48'9 7.2
2014-Oct-25 09:19N 29°30' W 094°52'5 7.1
2014-Oct-25 08:33N 29°34' W 094°56'7 7.2
2014-Oct-25 07:33N 29°41' W 094°59'7 6.8
2014-Oct-25 06:33N 29°46' W 095°05'1 0.6
2014-Oct-25 05:33N 29°46' W 095°05'1 1.1
2014-Oct-25 04:33N 29°45' W 095°05'0 0.3
2014-Oct-25 03:22N 29°46' W 095°06'0 0.0
2014-Oct-25 01:33N 29°46' W 095°06'1 0.8
2014-Oct-25 00:33N 29°46' W 095°06'1 1.1
2014-Oct-24 23:29N 29°45' W 095°06'2 1.3
2014-Oct-24 22:09N 29°46' W 095°05'1 0.8
2014-Oct-24 21:30N 29°46' W 095°05'0 0.3
2014-Oct-24 20:29N 29°46' W 095°06'1 1.5
2014-Oct-24 19:32N 29°45' W 095°04'5 5.4
2014-Oct-24 18:33N 29°42' W 094°60'6 6.4
2014-Oct-24 17:34N 29°36' W 094°57'7 6.5
2014-Oct-24 16:33N 29°30' W 094°52'6 6.1
2014-Oct-24 15:32N 29°25' W 094°49'3 2.7
2014-Oct-24 14:33N 29°22' W 094°51'1 0.4
2014-Oct-24 11:10N 29°22' W 094°49'4 5.1
2014-Oct-24 10:26N 29°24' W 094°46'3 1.5
2014-Oct-24 08:29N 29°26' W 094°43'4 1.8
2014-Oct-24 06:20N 29°23' W 094°46'2 0.1
2014-Oct-23 06:12N 29°22' W 094°48'9 3.0
2014-Oct-23 03:08N 29°30' W 094°52'5 8.8
2014-Oct-23 02:33N 29°34' W 094°56'7 7.5
2014-Oct-23 01:33N 29°41' W 094°59'7 6.4
2014-Oct-23 00:26N 29°45' W 095°06'0 0.3
2014-Oct-22 23:29N 29°45' W 095°06'0 0.1
2014-Oct-22 21:31N 29°45' W 095°06'2 2.2
2014-Oct-22 20:33N 29°46' W 095°05'1 0.9
2014-Oct-22 19:29N 29°47' W 095°04'0 0.2
2014-Oct-22 18:33N 29°47' W 095°04'2 2.0
2014-Oct-22 17:33N 29°46' W 095°06'2 2.3
2014-Oct-22 16:33N 29°44' W 095°08'0 0.0
2014-Oct-22 15:08N 29°44' W 095°08'1 1.6
2014-Oct-22 14:33N 29°44' W 095°07'4 3.4
2014-Oct-22 13:31N 29°47' W 095°04'1 1.2
2014-Oct-22 12:31N 29°46' W 095°05'1 0.4
2014-Oct-22 10:11N 29°46' W 095°06'2 3.1
2014-Oct-22 09:33N 29°47' W 095°04'1 1.0
2014-Oct-22 08:33N 29°46' W 095°05'6 6.4
2014-Oct-22 07:33N 29°42' W 094°60'8 7.9
2014-Oct-22 06:33N 29°35' W 094°56'8 8.1
2014-Oct-22 05:32N 29°27' W 094°51'4 0.2
2014-Oct-21 05:26N 29°24' W 094°49'8 8.6
2014-Oct-21 04:32N 29°31' W 094°53'9 8.7
2014-Oct-21 03:33N 29°38' W 094°58'8 8.2
2014-Oct-21 02:33N 29°45' W 095°04'3 2.9
2014-Oct-21 01:33N 29°47' W 095°04'0 0.3
2014-Oct-21 00:33N 29°47' W 095°04'0 0.1
2014-Oct-20 23:33N 29°47' W 095°04'0 0.0
2014-Oct-20 21:29N 29°47' W 095°04'0 0.3
2014-Oct-20 20:33N 29°47' W 095°04'0 0.0
2014-Oct-20 19:33N 29°47' W 095°04'0 0.0
2014-Oct-20 18:33N 29°47' W 095°04'0 0.0
2014-Oct-20 17:33N 29°47' W 095°04'0 0.0
2014-Oct-20 16:33N 29°47' W 095°04'0 0.0
2014-Oct-20 15:17N 29°47' W 095°04'0 0.5
2014-Oct-20 14:31N 29°47' W 095°04'0 0.3
2014-Oct-20 13:32N 29°47' W 095°04'4 3.7
2014-Oct-20 12:33N 29°44' W 095°03'6 6.2
2014-Oct-20 11:33N 29°39' W 094°58'  

Dump ship's entire track history